Falconia — H3QI — position and weather

sailwx.info

Track history (hours):
 
Tides and Currents Weather Stations Pressure Air Temp Water Temp Dewpoint Dewpoint Depression Visibility Wind Speed Wind Dir Waves Ship Positions

Falconia

Last reported at 2015-Jul-07 04:33 UTC. Time now 2015-Jul-07 06:45 UTC.
Position N 38°58' E 117°51'.

Length 88 m; draft 4.1 m.

Type: Cargo ship. MMSI: 353620000.

Date/timePositionNaut miles runAvg speedWind from/ knotsBaromVisibWave heightAir tempDewpointWater temp
2015-Jul-07 04:33N 38°58' E 117°51'6 5.9
2015-Jul-07 03:30N 39°03' E 117°46'0 0.0
2015-Jul-07 02:30N 39°03' E 117°46'0 0.0
2015-Jul-07 01:30N 39°03' E 117°46'0 0.0
2015-Jul-07 00:30N 39°03' E 117°46'0 0.0
2015-Jul-06 23:30N 39°03' E 117°46'0 0.0
2015-Jul-06 22:30N 39°03' E 117°46'0 0.0
2015-Jul-06 21:30N 39°03' E 117°46'0 0.0
2015-Jul-06 20:30N 39°03' E 117°46'0 0.0
2015-Jul-06 19:24N 39°03' E 117°46'0 0.0
2015-Jul-06 18:30N 39°03' E 117°46'0 0.0
2015-Jul-06 17:30N 39°03' E 117°46'0 0.0
2015-Jul-06 16:30N 39°03' E 117°46'0 0.0
2015-Jul-06 15:29N 39°03' E 117°46'0 0.0
2015-Jul-06 14:29N 39°03' E 117°46'0 0.0
2015-Jul-06 13:29N 39°03' E 117°46'0 0.0
2015-Jul-06 12:29N 39°03' E 117°46'0 0.0
2015-Jul-06 11:29N 39°03' E 117°46'0 0.0
2015-Jul-06 10:23N 39°03' E 117°46'0 0.0
2015-Jul-06 09:29N 39°03' E 117°46'0 0.0
2015-Jul-06 08:29N 39°03' E 117°46'0 0.0
2015-Jul-06 07:29N 39°03' E 117°46'0 0.3
2015-Jul-06 06:31N 39°03' E 117°46'9 8.5
2015-Jul-06 05:30N 38°57' E 117°55'5 0.8
2015-Jul-05 23:03N 38°58' E 118°02'0 0.0
2015-Jul-05 14:27N 38°58' E 118°02'0 0.0
2015-Jul-05 11:09N 38°58' E 118°02'0 0.0
2015-Jul-05 08:25N 38°58' E 118°01'18010.0
2015-Jul-04 14:27N 38°17' E 121°46'1112.5
2015-Jul-04 13:33N 38°12' E 121°59'3912.9
2015-Jul-04 10:33N 37°55' E 122°43'27511.7
2015-Jul-03 11:04N 33°38' E 124°44'1811.1
2015-Jul-03 09:29N 33°21' E 124°50'  
Track history (hours):
 
Tides and Currents Weather Stations Pressure Air Temp Water Temp Dewpoint Dewpoint Depression Visibility Wind Speed Wind Dir Waves Ship Positions

Falconia

Last reported at 2015-Jul-07 04:33 UTC. Time now 2015-Jul-07 06:45 UTC.
Position N 38°58' E 117°51'.

Length 88 m; draft 4.1 m.

Type: Cargo ship. MMSI: 353620000.

Date/timePositionNaut miles runAvg speedWind from/ knotsBaromVisibWave heightAir tempDewpointWater temp
2015-Jul-07 04:33N 38°58' E 117°51'6 5.9
2015-Jul-07 03:30N 39°03' E 117°46'0 0.0
2015-Jul-07 02:30N 39°03' E 117°46'0 0.0
2015-Jul-07 01:30N 39°03' E 117°46'0 0.0
2015-Jul-07 00:30N 39°03' E 117°46'0 0.0
2015-Jul-06 23:30N 39°03' E 117°46'0 0.0
2015-Jul-06 22:30N 39°03' E 117°46'0 0.0
2015-Jul-06 21:30N 39°03' E 117°46'0 0.0
2015-Jul-06 20:30N 39°03' E 117°46'0 0.0
2015-Jul-06 19:24N 39°03' E 117°46'0 0.0
2015-Jul-06 18:30N 39°03' E 117°46'0 0.0
2015-Jul-06 17:30N 39°03' E 117°46'0 0.0
2015-Jul-06 16:30N 39°03' E 117°46'0 0.0
2015-Jul-06 15:29N 39°03' E 117°46'0 0.0
2015-Jul-06 14:29N 39°03' E 117°46'0 0.0
2015-Jul-06 13:29N 39°03' E 117°46'0 0.0
2015-Jul-06 12:29N 39°03' E 117°46'0 0.0
2015-Jul-06 11:29N 39°03' E 117°46'0 0.0
2015-Jul-06 10:23N 39°03' E 117°46'0 0.0
2015-Jul-06 09:29N 39°03' E 117°46'0 0.0
2015-Jul-06 08:29N 39°03' E 117°46'0 0.0
2015-Jul-06 07:29N 39°03' E 117°46'0 0.3
2015-Jul-06 06:31N 39°03' E 117°46'9 8.5
2015-Jul-06 05:30N 38°57' E 117°55'5 0.8
2015-Jul-05 23:03N 38°58' E 118°02'0 0.0
2015-Jul-05 14:27N 38°58' E 118°02'0 0.0
2015-Jul-05 11:09N 38°58' E 118°02'0 0.0
2015-Jul-05 08:25N 38°58' E 118°01'18010.0
2015-Jul-04 14:27N 38°17' E 121°46'1112.5
2015-Jul-04 13:33N 38°12' E 121°59'3912.9
2015-Jul-04 10:33N 37°55' E 122°43'27511.7
2015-Jul-03 11:04N 33°38' E 124°44'1811.1
2015-Jul-03 09:29N 33°21' E 124°50'  

Dump ship's entire track history